sensor_id;sensor_type;location;lat;lon;timestamp;P1;durP1;ratioP1;P2;durP2;ratioP2
68097;SDS011;54886;47.036;15.466;2023-01-29T00:01:29;33.20;;;17.42;;
68097;SDS011;54886;47.036;15.466;2023-01-29T00:03:55;35.15;;;17.70;;
68097;SDS011;54886;47.036;15.466;2023-01-29T00:06:21;34.65;;;16.75;;
68097;SDS011;54886;47.036;15.466;2023-01-29T00:08:49;33.40;;;17.90;;
68097;SDS011;54886;47.036;15.466;2023-01-29T00:11:15;33.47;;;17.25;;
68097;SDS011;54886;47.036;15.466;2023-01-29T00:13:41;34.85;;;17.80;;
68097;SDS011;54886;47.036;15.466;2023-01-29T00:16:07;33.33;;;17.77;;
68097;SDS011;54886;47.036;15.466;2023-01-29T00:18:32;34.33;;;17.80;;
68097;SDS011;54886;47.036;15.466;2023-01-29T00:21:02;33.17;;;16.92;;
68097;SDS011;54886;47.036;15.466;2023-01-29T00:23:28;29.45;;;16.15;;
68097;SDS011;54886;47.036;15.466;2023-01-29T00:25:53;31.60;;;17.45;;
68097;SDS011;54886;47.036;15.466;2023-01-29T00:28:18;32.80;;;16.17;;
68097;SDS011;54886;47.036;15.466;2023-01-29T00:30:44;34.35;;;17.75;;
68097;SDS011;54886;47.036;15.466;2023-01-29T00:33:09;32.25;;;17.40;;
68097;SDS011;54886;47.036;15.466;2023-01-29T00:35:38;31.15;;;17.23;;
68097;SDS011;54886;47.036;15.466;2023-01-29T00:38:05;34.80;;;18.02;;
68097;SDS011;54886;47.036;15.466;2023-01-29T00:40:30;38.75;;;18.05;;
68097;SDS011;54886;47.036;15.466;2023-01-29T00:43:15;32.40;;;16.95;;
68097;SDS011;54886;47.036;15.466;2023-01-29T00:45:59;33.97;;;16.88;;
68097;SDS011;54886;47.036;15.466;2023-01-29T00:48:25;33.35;;;16.95;;
68097;SDS011;54886;47.036;15.466;2023-01-29T00:50:50;31.52;;;16.63;;
68097;SDS011;54886;47.036;15.466;2023-01-29T00:53:16;31.42;;;17.88;;
68097;SDS011;54886;47.036;15.466;2023-01-29T00:55:41;34.45;;;17.65;;
68097;SDS011;54886;47.036;15.466;2023-01-29T00:58:08;35.75;;;18.13;;
68097;SDS011;54886;47.036;15.466;2023-01-29T01:00:34;31.65;;;17.00;;
68097;SDS011;54886;47.036;15.466;2023-01-29T01:02:59;35.08;;;17.13;;
68097;SDS011;54886;47.036;15.466;2023-01-29T01:05:30;31.05;;;16.85;;
68097;SDS011;54886;47.036;15.466;2023-01-29T01:07:56;32.63;;;16.65;;
68097;SDS011;54886;47.036;15.466;2023-01-29T01:15:21;31.50;;;17.27;;
68097;SDS011;54886;47.036;15.466;2023-01-29T01:17:50;29.77;;;16.67;;
68097;SDS011;54886;47.036;15.466;2023-01-29T01:20:16;28.48;;;15.63;;
68097;SDS011;54886;47.036;15.466;2023-01-29T01:22:44;29.10;;;15.93;;
68097;SDS011;54886;47.036;15.466;2023-01-29T01:25:10;26.88;;;14.57;;
68097;SDS011;54886;47.036;15.466;2023-01-29T01:27:35;30.20;;;16.73;;
68097;SDS011;54886;47.036;15.466;2023-01-29T01:30:05;27.85;;;16.38;;
68097;SDS011;54886;47.036;15.466;2023-01-29T01:32:35;28.25;;;16.15;;
68097;SDS011;54886;47.036;15.466;2023-01-29T01:35:01;32.65;;;16.35;;
68097;SDS011;54886;47.036;15.466;2023-01-29T01:37:27;29.77;;;15.63;;
68097;SDS011;54886;47.036;15.466;2023-01-29T01:39:52;29.20;;;14.73;;
68097;SDS011;54886;47.036;15.466;2023-01-29T01:42:21;32.15;;;16.80;;
68097;SDS011;54886;47.036;15.466;2023-01-29T01:45:00;30.05;;;16.67;;
68097;SDS011;54886;47.036;15.466;2023-01-29T01:47:40;28.08;;;15.15;;
68097;SDS011;54886;47.036;15.466;2023-01-29T01:50:12;28.58;;;15.80;;
68097;SDS011;54886;47.036;15.466;2023-01-29T01:52:46;29.15;;;14.40;;
68097;SDS011;54886;47.036;15.466;2023-01-29T01:55:16;27.75;;;14.90;;
68097;SDS011;54886;47.036;15.466;2023-01-29T01:57:45;31.67;;;16.45;;
68097;SDS011;54886;47.036;15.466;2023-01-29T02:00:15;32.28;;;16.52;;
68097;SDS011;54886;47.036;15.466;2023-01-29T02:02:42;30.20;;;15.32;;
68097;SDS011;54886;47.036;15.466;2023-01-29T02:05:29;28.13;;;14.90;;
68097;SDS011;54886;47.036;15.466;2023-01-29T02:08:16;30.73;;;15.90;;
68097;SDS011;54886;47.036;15.466;2023-01-29T02:11:06;27.88;;;14.95;;
68097;SDS011;54886;47.036;15.466;2023-01-29T02:13:32;30.65;;;15.68;;
68097;SDS011;54886;47.036;15.466;2023-01-29T02:15:58;28.55;;;15.35;;
68097;SDS011;54886;47.036;15.466;2023-01-29T02:18:23;30.65;;;15.68;;
68097;SDS011;54886;47.036;15.466;2023-01-29T02:20:56;28.92;;;15.30;;
68097;SDS011;54886;47.036;15.466;2023-01-29T02:23:42;29.42;;;15.35;;
68097;SDS011;54886;47.036;15.466;2023-01-29T02:26:39;26.38;;;14.52;;
68097;SDS011;54886;47.036;15.466;2023-01-29T02:46:09;28.27;;;15.75;;
68097;SDS011;54886;47.036;15.466;2023-01-29T02:51:47;32.78;;;16.55;;
68097;SDS011;54886;47.036;15.466;2023-01-29T02:54:38;26.73;;;14.95;;
68097;SDS011;54886;47.036;15.466;2023-01-29T02:57:22;28.08;;;15.23;;
68097;SDS011;54886;47.036;15.466;2023-01-29T02:59:57;26.95;;;14.88;;
68097;SDS011;54886;47.036;15.466;2023-01-29T03:02:37;27.58;;;15.30;;
68097;SDS011;54886;47.036;15.466;2023-01-29T03:05:14;27.25;;;14.98;;
68097;SDS011;54886;47.036;15.466;2023-01-29T03:07:47;27.00;;;14.90;;
68097;SDS011;54886;47.036;15.466;2023-01-29T03:10:18;28.65;;;16.17;;
68097;SDS011;54886;47.036;15.466;2023-01-29T03:12:52;26.88;;;14.98;;
68097;SDS011;54886;47.036;15.466;2023-01-29T03:15:31;29.63;;;15.30;;
68097;SDS011;54886;47.036;15.466;2023-01-29T03:18:10;28.85;;;15.45;;
68097;SDS011;54886;47.036;15.466;2023-01-29T03:20:41;31.55;;;16.58;;
68097;SDS011;54886;47.036;15.466;2023-01-29T03:23:13;26.70;;;14.80;;
68097;SDS011;54886;47.036;15.466;2023-01-29T03:25:52;25.52;;;14.18;;
68097;SDS011;54886;47.036;15.466;2023-01-29T03:28:41;29.48;;;15.50;;
68097;SDS011;54886;47.036;15.466;2023-01-29T03:31:27;28.13;;;15.82;;
68097;SDS011;54886;47.036;15.466;2023-01-29T03:34:16;27.08;;;15.20;;
68097;SDS011;54886;47.036;15.466;2023-01-29T03:36:56;28.13;;;15.80;;
68097;SDS011;54886;47.036;15.466;2023-01-29T03:39:25;29.85;;;15.60;;
68097;SDS011;54886;47.036;15.466;2023-01-29T03:41:59;28.77;;;14.95;;
68097;SDS011;54886;47.036;15.466;2023-01-29T04:02:54;26.17;;;14.32;;
68097;SDS011;54886;47.036;15.466;2023-01-29T04:05:39;25.17;;;13.18;;
68097;SDS011;54886;47.036;15.466;2023-01-29T04:08:14;27.17;;;14.30;;
68097;SDS011;54886;47.036;15.466;2023-01-29T04:10:46;25.50;;;13.55;;
68097;SDS011;54886;47.036;15.466;2023-01-29T04:13:14;26.02;;;14.50;;
68097;SDS011;54886;47.036;15.466;2023-01-29T04:15:44;23.40;;;13.20;;
68097;SDS011;54886;47.036;15.466;2023-01-29T04:18:13;25.45;;;13.32;;
68097;SDS011;54886;47.036;15.466;2023-01-29T04:20:39;25.80;;;13.63;;
68097;SDS011;54886;47.036;15.466;2023-01-29T04:23:06;30.55;;;14.90;;
68097;SDS011;54886;47.036;15.466;2023-01-29T04:25:43;26.58;;;14.23;;
68097;SDS011;54886;47.036;15.466;2023-01-29T04:28:37;24.00;;;13.27;;
68097;SDS011;54886;47.036;15.466;2023-01-29T04:31:29;23.10;;;12.45;;
68097;SDS011;54886;47.036;15.466;2023-01-29T04:34:20;24.75;;;12.95;;
68097;SDS011;54886;47.036;15.466;2023-01-29T04:40:07;22.98;;;13.25;;
68097;SDS011;54886;47.036;15.466;2023-01-29T04:45:12;26.48;;;14.13;;
68097;SDS011;54886;47.036;15.466;2023-01-29T04:47:48;26.67;;;14.30;;
68097;SDS011;54886;47.036;15.466;2023-01-29T04:50:39;25.33;;;13.90;;
68097;SDS011;54886;47.036;15.466;2023-01-29T04:55:42;25.58;;;14.27;;
68097;SDS011;54886;47.036;15.466;2023-01-29T04:58:27;26.85;;;14.75;;
68097;SDS011;54886;47.036;15.466;2023-01-29T05:00:57;26.38;;;14.27;;
68097;SDS011;54886;47.036;15.466;2023-01-29T05:03:25;25.85;;;14.45;;
68097;SDS011;54886;47.036;15.466;2023-01-29T05:05:52;27.73;;;15.10;;
68097;SDS011;54886;47.036;15.466;2023-01-29T05:08:20;24.55;;;13.40;;
68097;SDS011;54886;47.036;15.466;2023-01-29T05:10:49;22.38;;;12.73;;
68097;SDS011;54886;47.036;15.466;2023-01-29T05:13:18;24.80;;;14.10;;
68097;SDS011;54886;47.036;15.466;2023-01-29T05:16:01;25.48;;;13.77;;
68097;SDS011;54886;47.036;15.466;2023-01-29T05:18:32;24.00;;;13.40;;
68097;SDS011;54886;47.036;15.466;2023-01-29T05:20:59;25.23;;;13.30;;
68097;SDS011;54886;47.036;15.466;2023-01-29T05:23:28;24.67;;;13.00;;
68097;SDS011;54886;47.036;15.466;2023-01-29T05:25:54;24.23;;;13.60;;
68097;SDS011;54886;47.036;15.466;2023-01-29T05:28:21;26.05;;;14.30;;
68097;SDS011;54886;47.036;15.466;2023-01-29T05:30:48;25.00;;;14.05;;
68097;SDS011;54886;47.036;15.466;2023-01-29T05:33:19;25.45;;;12.88;;
68097;SDS011;54886;47.036;15.466;2023-01-29T05:35:55;23.70;;;12.40;;
68097;SDS011;54886;47.036;15.466;2023-01-29T05:38:23;23.42;;;13.50;;
68097;SDS011;54886;47.036;15.466;2023-01-29T05:40:49;23.42;;;12.85;;
68097;SDS011;54886;47.036;15.466;2023-01-29T05:43:21;23.25;;;12.88;;
68097;SDS011;54886;47.036;15.466;2023-01-29T05:45:56;23.30;;;12.38;;
68097;SDS011;54886;47.036;15.466;2023-01-29T05:48:23;24.77;;;12.25;;
68097;SDS011;54886;47.036;15.466;2023-01-29T05:50:49;23.17;;;12.90;;
68097;SDS011;54886;47.036;15.466;2023-01-29T05:53:15;24.67;;;13.57;;
68097;SDS011;54886;47.036;15.466;2023-01-29T05:55:43;21.73;;;11.75;;
68097;SDS011;54886;47.036;15.466;2023-01-29T05:58:09;22.17;;;12.70;;
68097;SDS011;54886;47.036;15.466;2023-01-29T06:00:35;23.65;;;12.77;;
68097;SDS011;54886;47.036;15.466;2023-01-29T06:03:00;27.13;;;13.10;;
68097;SDS011;54886;47.036;15.466;2023-01-29T06:05:26;21.73;;;12.82;;
68097;SDS011;54886;47.036;15.466;2023-01-29T06:07:51;23.70;;;12.55;;
68097;SDS011;54886;47.036;15.466;2023-01-29T06:10:17;22.55;;;12.00;;
68097;SDS011;54886;47.036;15.466;2023-01-29T06:12:42;24.90;;;12.45;;
68097;SDS011;54886;47.036;15.466;2023-01-29T06:15:11;23.35;;;11.88;;
68097;SDS011;54886;47.036;15.466;2023-01-29T06:20:04;20.10;;;10.85;;
68097;SDS011;54886;47.036;15.466;2023-01-29T06:22:31;21.67;;;12.00;;
68097;SDS011;54886;47.036;15.466;2023-01-29T06:24:57;21.17;;;11.95;;
68097;SDS011;54886;47.036;15.466;2023-01-29T06:27:22;22.63;;;12.57;;
68097;SDS011;54886;47.036;15.466;2023-01-29T06:29:48;22.65;;;13.13;;
68097;SDS011;54886;47.036;15.466;2023-01-29T06:32:13;22.27;;;13.68;;
68097;SDS011;54886;47.036;15.466;2023-01-29T06:34:39;22.92;;;12.80;;
68097;SDS011;54886;47.036;15.466;2023-01-29T06:37:04;24.10;;;13.05;;
68097;SDS011;54886;47.036;15.466;2023-01-29T06:39:32;24.67;;;13.63;;
68097;SDS011;54886;47.036;15.466;2023-01-29T06:41:58;25.58;;;13.07;;
68097;SDS011;54886;47.036;15.466;2023-01-29T06:44:23;22.20;;;12.55;;
68097;SDS011;54886;47.036;15.466;2023-01-29T06:46:48;22.00;;;12.88;;
68097;SDS011;54886;47.036;15.466;2023-01-29T06:49:14;24.30;;;13.32;;
68097;SDS011;54886;47.036;15.466;2023-01-29T06:51:39;24.02;;;13.32;;
68097;SDS011;54886;47.036;15.466;2023-01-29T06:54:05;24.20;;;13.20;;
68097;SDS011;54886;47.036;15.466;2023-01-29T06:56:32;25.10;;;13.98;;
68097;SDS011;54886;47.036;15.466;2023-01-29T06:58:59;24.38;;;13.73;;
68097;SDS011;54886;47.036;15.466;2023-01-29T07:01:25;25.60;;;14.32;;
68097;SDS011;54886;47.036;15.466;2023-01-29T07:03:50;27.40;;;14.23;;
68097;SDS011;54886;47.036;15.466;2023-01-29T07:06:16;24.65;;;13.82;;
68097;SDS011;54886;47.036;15.466;2023-01-29T07:08:42;22.38;;;13.48;;
68097;SDS011;54886;47.036;15.466;2023-01-29T07:11:07;25.15;;;13.50;;
68097;SDS011;54886;47.036;15.466;2023-01-29T07:13:33;23.58;;;13.18;;
68097;SDS011;54886;47.036;15.466;2023-01-29T07:15:59;24.08;;;13.05;;
68097;SDS011;54886;47.036;15.466;2023-01-29T07:18:26;23.13;;;13.35;;
68097;SDS011;54886;47.036;15.466;2023-01-29T07:20:52;23.23;;;12.60;;
68097;SDS011;54886;47.036;15.466;2023-01-29T07:23:18;22.83;;;12.70;;
68097;SDS011;54886;47.036;15.466;2023-01-29T07:25:43;24.50;;;13.23;;
68097;SDS011;54886;47.036;15.466;2023-01-29T07:28:09;27.33;;;12.90;;
68097;SDS011;54886;47.036;15.466;2023-01-29T07:30:35;21.40;;;12.75;;
68097;SDS011;54886;47.036;15.466;2023-01-29T07:33:04;22.67;;;12.95;;
68097;SDS011;54886;47.036;15.466;2023-01-29T07:35:31;24.58;;;13.00;;
68097;SDS011;54886;47.036;15.466;2023-01-29T07:37:59;26.40;;;14.32;;
68097;SDS011;54886;47.036;15.466;2023-01-29T07:40:25;25.65;;;15.02;;
68097;SDS011;54886;47.036;15.466;2023-01-29T07:42:50;23.83;;;15.10;;
68097;SDS011;54886;47.036;15.466;2023-01-29T07:45:21;26.63;;;14.10;;
68097;SDS011;54886;47.036;15.466;2023-01-29T07:47:50;27.35;;;15.02;;
68097;SDS011;54886;47.036;15.466;2023-01-29T07:50:18;29.60;;;15.48;;
68097;SDS011;54886;47.036;15.466;2023-01-29T07:52:44;27.05;;;16.15;;
68097;SDS011;54886;47.036;15.466;2023-01-29T07:55:10;29.52;;;16.65;;
68097;SDS011;54886;47.036;15.466;2023-01-29T07:57:35;26.77;;;16.05;;
68097;SDS011;54886;47.036;15.466;2023-01-29T08:00:01;28.33;;;15.77;;
68097;SDS011;54886;47.036;15.466;2023-01-29T08:02:28;26.10;;;14.57;;
68097;SDS011;54886;47.036;15.466;2023-01-29T08:04:54;27.10;;;14.57;;
68097;SDS011;54886;47.036;15.466;2023-01-29T08:07:19;28.92;;;15.55;;
68097;SDS011;54886;47.036;15.466;2023-01-29T08:09:47;26.98;;;14.50;;
68097;SDS011;54886;47.036;15.466;2023-01-29T08:12:12;29.35;;;15.38;;
68097;SDS011;54886;47.036;15.466;2023-01-29T08:14:38;28.38;;;15.55;;
68097;SDS011;54886;47.036;15.466;2023-01-29T08:17:04;29.02;;;15.20;;
68097;SDS011;54886;47.036;15.466;2023-01-29T08:19:29;30.48;;;16.88;;
68097;SDS011;54886;47.036;15.466;2023-01-29T08:21:55;26.40;;;15.35;;
68097;SDS011;54886;47.036;15.466;2023-01-29T08:24:20;31.10;;;17.27;;
68097;SDS011;54886;47.036;15.466;2023-01-29T08:26:46;29.38;;;16.90;;
68097;SDS011;54886;47.036;15.466;2023-01-29T08:29:11;31.67;;;17.55;;
68097;SDS011;54886;47.036;15.466;2023-01-29T08:31:37;26.10;;;15.57;;
68097;SDS011;54886;47.036;15.466;2023-01-29T08:34:02;27.70;;;16.52;;
68097;SDS011;54886;47.036;15.466;2023-01-29T08:36:28;30.63;;;17.45;;
68097;SDS011;54886;47.036;15.466;2023-01-29T08:38:53;28.65;;;15.60;;
68097;SDS011;54886;47.036;15.466;2023-01-29T08:41:18;26.73;;;15.57;;
68097;SDS011;54886;47.036;15.466;2023-01-29T08:43:44;31.13;;;17.33;;
68097;SDS011;54886;47.036;15.466;2023-01-29T08:46:10;29.10;;;15.75;;
68097;SDS011;54886;47.036;15.466;2023-01-29T08:48:36;26.80;;;15.00;;
68097;SDS011;54886;47.036;15.466;2023-01-29T08:51:01;29.50;;;15.18;;
68097;SDS011;54886;47.036;15.466;2023-01-29T08:53:28;25.98;;;15.50;;
68097;SDS011;54886;47.036;15.466;2023-01-29T08:55:54;25.25;;;14.55;;
68097;SDS011;54886;47.036;15.466;2023-01-29T08:58:19;24.00;;;13.45;;
68097;SDS011;54886;47.036;15.466;2023-01-29T09:00:44;27.00;;;14.48;;
68097;SDS011;54886;47.036;15.466;2023-01-29T09:03:10;27.13;;;14.50;;
68097;SDS011;54886;47.036;15.466;2023-01-29T09:05:36;27.20;;;15.38;;
68097;SDS011;54886;47.036;15.466;2023-01-29T09:08:05;27.35;;;15.93;;
68097;SDS011;54886;47.036;15.466;2023-01-29T09:10:31;23.75;;;14.45;;
68097;SDS011;54886;47.036;15.466;2023-01-29T09:12:57;26.35;;;15.50;;
68097;SDS011;54886;47.036;15.466;2023-01-29T09:15:23;22.90;;;13.07;;
68097;SDS011;54886;47.036;15.466;2023-01-29T09:17:49;27.17;;;15.18;;
68097;SDS011;54886;47.036;15.466;2023-01-29T09:20:14;25.80;;;13.70;;
68097;SDS011;54886;47.036;15.466;2023-01-29T09:22:40;25.45;;;13.75;;
68097;SDS011;54886;47.036;15.466;2023-01-29T09:25:06;20.65;;;11.57;;
68097;SDS011;54886;47.036;15.466;2023-01-29T09:27:32;20.10;;;11.50;;
68097;SDS011;54886;47.036;15.466;2023-01-29T09:29:57;17.92;;;9.88;;
68097;SDS011;54886;47.036;15.466;2023-01-29T09:32:23;16.60;;;9.98;;
68097;SDS011;54886;47.036;15.466;2023-01-29T09:34:56;21.27;;;11.10;;
68097;SDS011;54886;47.036;15.466;2023-01-29T09:37:21;19.23;;;10.75;;
68097;SDS011;54886;47.036;15.466;2023-01-29T09:39:50;17.58;;;10.05;;
68097;SDS011;54886;47.036;15.466;2023-01-29T09:47:44;18.48;;;9.65;;
68097;SDS011;54886;47.036;15.466;2023-01-29T09:50:16;19.67;;;10.50;;
68097;SDS011;54886;47.036;15.466;2023-01-29T09:52:57;19.08;;;9.82;;
68097;SDS011;54886;47.036;15.466;2023-01-29T09:55:27;15.23;;;9.10;;
68097;SDS011;54886;47.036;15.466;2023-01-29T09:57:55;20.08;;;10.18;;
68097;SDS011;54886;47.036;15.466;2023-01-29T10:00:50;17.95;;;10.48;;
68097;SDS011;54886;47.036;15.466;2023-01-29T10:13:56;17.73;;;10.55;;
68097;SDS011;54886;47.036;15.466;2023-01-29T10:24:59;18.83;;;9.57;;
68097;SDS011;54886;47.036;15.466;2023-01-29T10:27:31;18.40;;;9.23;;
68097;SDS011;54886;47.036;15.466;2023-01-29T10:30:02;17.42;;;9.73;;
68097;SDS011;54886;47.036;15.466;2023-01-29T10:32:33;16.73;;;9.05;;
68097;SDS011;54886;47.036;15.466;2023-01-29T10:35:01;18.38;;;10.00;;
68097;SDS011;54886;47.036;15.466;2023-01-29T10:37:41;17.45;;;9.80;;
68097;SDS011;54886;47.036;15.466;2023-01-29T10:40:31;16.45;;;9.77;;
68097;SDS011;54886;47.036;15.466;2023-01-29T10:43:11;16.65;;;9.88;;
68097;SDS011;54886;47.036;15.466;2023-01-29T10:48:43;16.45;;;9.10;;
68097;SDS011;54886;47.036;15.466;2023-01-29T10:51:38;16.33;;;9.57;;
68097;SDS011;54886;47.036;15.466;2023-01-29T11:02:15;15.48;;;9.05;;
68097;SDS011;54886;47.036;15.466;2023-01-29T11:04:43;17.23;;;9.63;;
68097;SDS011;54886;47.036;15.466;2023-01-29T11:07:09;18.40;;;10.35;;
68097;SDS011;54886;47.036;15.466;2023-01-29T11:12:29;13.85;;;8.50;;
68097;SDS011;54886;47.036;15.466;2023-01-29T11:15:39;16.40;;;8.98;;
68097;SDS011;54886;47.036;15.466;2023-01-29T11:18:02;16.38;;;9.48;;
68097;SDS011;54886;47.036;15.466;2023-01-29T11:20:38;16.38;;;9.23;;
68097;SDS011;54886;47.036;15.466;2023-01-29T11:23:05;16.20;;;9.68;;
68097;SDS011;54886;47.036;15.466;2023-01-29T11:25:30;18.00;;;10.10;;
68097;SDS011;54886;47.036;15.466;2023-01-29T11:28:00;16.88;;;9.52;;
68097;SDS011;54886;47.036;15.466;2023-01-29T11:30:33;18.30;;;10.43;;
68097;SDS011;54886;47.036;15.466;2023-01-29T11:33:05;16.88;;;10.55;;
68097;SDS011;54886;47.036;15.466;2023-01-29T11:35:41;19.50;;;10.25;;
68097;SDS011;54886;47.036;15.466;2023-01-29T11:40:43;15.65;;;9.55;;
68097;SDS011;54886;47.036;15.466;2023-01-29T11:45:55;17.33;;;9.55;;
68097;SDS011;54886;47.036;15.466;2023-01-29T11:48:25;15.70;;;9.23;;
68097;SDS011;54886;47.036;15.466;2023-01-29T11:50:57;17.40;;;10.15;;
68097;SDS011;54886;47.036;15.466;2023-01-29T11:53:34;17.75;;;10.65;;
68097;SDS011;54886;47.036;15.466;2023-01-29T11:56:03;16.45;;;9.20;;
68097;SDS011;54886;47.036;15.466;2023-01-29T11:58:39;16.75;;;8.80;;
68097;SDS011;54886;47.036;15.466;2023-01-29T12:01:06;17.25;;;10.10;;
68097;SDS011;54886;47.036;15.466;2023-01-29T12:03:41;17.70;;;9.82;;
68097;SDS011;54886;47.036;15.466;2023-01-29T12:06:19;18.10;;;9.52;;
68097;SDS011;54886;47.036;15.466;2023-01-29T12:08:54;17.35;;;9.80;;
68097;SDS011;54886;47.036;15.466;2023-01-29T12:11:26;16.17;;;9.40;;
68097;SDS011;54886;47.036;15.466;2023-01-29T12:13:58;16.38;;;9.32;;
68097;SDS011;54886;47.036;15.466;2023-01-29T12:16:41;16.60;;;9.60;;
68097;SDS011;54886;47.036;15.466;2023-01-29T12:19:32;18.55;;;9.52;;
68097;SDS011;54886;47.036;15.466;2023-01-29T12:22:03;14.80;;;9.27;;
68097;SDS011;54886;47.036;15.466;2023-01-29T12:24:37;16.35;;;9.32;;
68097;SDS011;54886;47.036;15.466;2023-01-29T12:29:51;17.30;;;9.40;;
68097;SDS011;54886;47.036;15.466;2023-01-29T12:32:41;15.88;;;9.10;;
68097;SDS011;54886;47.036;15.466;2023-01-29T12:35:20;14.48;;;8.65;;
68097;SDS011;54886;47.036;15.466;2023-01-29T12:40:39;14.95;;;8.98;;
68097;SDS011;54886;47.036;15.466;2023-01-29T12:46:03;14.10;;;8.48;;
68097;SDS011;54886;47.036;15.466;2023-01-29T12:48:33;14.85;;;8.27;;
68097;SDS011;54886;47.036;15.466;2023-01-29T12:51:09;18.10;;;9.57;;
68097;SDS011;54886;47.036;15.466;2023-01-29T12:53:43;14.10;;;8.95;;
68097;SDS011;54886;47.036;15.466;2023-01-29T12:56:21;16.63;;;9.25;;
68097;SDS011;54886;47.036;15.466;2023-01-29T12:58:53;14.93;;;8.65;;
68097;SDS011;54886;47.036;15.466;2023-01-29T13:01:37;14.00;;;8.55;;
68097;SDS011;54886;47.036;15.466;2023-01-29T13:04:14;14.75;;;8.77;;
68097;SDS011;54886;47.036;15.466;2023-01-29T13:06:49;13.25;;;8.13;;
68097;SDS011;54886;47.036;15.466;2023-01-29T13:09:21;15.13;;;8.70;;
68097;SDS011;54886;47.036;15.466;2023-01-29T13:12:10;14.73;;;8.27;;
68097;SDS011;54886;47.036;15.466;2023-01-29T13:14:56;14.65;;;8.18;;
68097;SDS011;54886;47.036;15.466;2023-01-29T13:17:29;14.95;;;8.82;;
68097;SDS011;54886;47.036;15.466;2023-01-29T13:20:04;16.30;;;9.02;;
68097;SDS011;54886;47.036;15.466;2023-01-29T13:22:40;15.20;;;9.30;;
68097;SDS011;54886;47.036;15.466;2023-01-29T13:25:11;15.73;;;9.25;;
68097;SDS011;54886;47.036;15.466;2023-01-29T13:27:41;15.30;;;8.95;;
68097;SDS011;54886;47.036;15.466;2023-01-29T13:30:19;17.03;;;8.93;;
68097;SDS011;54886;47.036;15.466;2023-01-29T13:32:49;15.30;;;9.10;;
68097;SDS011;54886;47.036;15.466;2023-01-29T13:35:16;14.57;;;8.90;;
68097;SDS011;54886;47.036;15.466;2023-01-29T13:37:48;14.07;;;8.38;;
68097;SDS011;54886;47.036;15.466;2023-01-29T13:40:18;14.02;;;8.30;;
68097;SDS011;54886;47.036;15.466;2023-01-29T13:42:48;15.05;;;8.68;;
68097;SDS011;54886;47.036;15.466;2023-01-29T13:46:04;15.30;;;8.10;;
68097;SDS011;54886;47.036;15.466;2023-01-29T13:48:29;12.70;;;7.82;;
68097;SDS011;54886;47.036;15.466;2023-01-29T13:50:59;14.85;;;8.40;;
68097;SDS011;54886;47.036;15.466;2023-01-29T13:59:19;16.17;;;8.53;;
68097;SDS011;54886;47.036;15.466;2023-01-29T14:06:47;14.82;;;8.68;;
68097;SDS011;54886;47.036;15.466;2023-01-29T14:09:32;15.27;;;8.40;;
68097;SDS011;54886;47.036;15.466;2023-01-29T14:17:17;14.30;;;8.93;;
68097;SDS011;54886;47.036;15.466;2023-01-29T14:20:18;13.52;;;8.27;;
68097;SDS011;54886;47.036;15.466;2023-01-29T14:22:43;14.20;;;7.97;;
68097;SDS011;54886;47.036;15.466;2023-01-29T14:25:18;13.55;;;8.02;;
68097;SDS011;54886;47.036;15.466;2023-01-29T14:27:47;14.38;;;7.85;;
68097;SDS011;54886;47.036;15.466;2023-01-29T14:30:16;13.55;;;8.10;;
68097;SDS011;54886;47.036;15.466;2023-01-29T14:32:45;14.45;;;8.18;;
68097;SDS011;54886;47.036;15.466;2023-01-29T14:35:20;12.73;;;8.00;;
68097;SDS011;54886;47.036;15.466;2023-01-29T14:37:53;14.30;;;8.80;;
68097;SDS011;54886;47.036;15.466;2023-01-29T14:40:23;14.48;;;8.45;;
68097;SDS011;54886;47.036;15.466;2023-01-29T14:45:30;15.05;;;8.48;;
68097;SDS011;54886;47.036;15.466;2023-01-29T14:48:01;12.43;;;7.97;;
68097;SDS011;54886;47.036;15.466;2023-01-29T14:50:46;13.02;;;7.88;;
68097;SDS011;54886;47.036;15.466;2023-01-29T14:56:33;14.15;;;8.77;;
68097;SDS011;54886;47.036;15.466;2023-01-29T15:01:46;12.95;;;8.23;;
68097;SDS011;54886;47.036;15.466;2023-01-29T15:04:27;13.95;;;8.45;;
68097;SDS011;54886;47.036;15.466;2023-01-29T15:07:01;13.07;;;8.18;;
68097;SDS011;54886;47.036;15.466;2023-01-29T15:12:15;16.15;;;8.88;;
68097;SDS011;54886;47.036;15.466;2023-01-29T15:14:48;14.93;;;9.00;;
68097;SDS011;54886;47.036;15.466;2023-01-29T15:20:34;14.27;;;8.50;;
68097;SDS011;54886;47.036;15.466;2023-01-29T15:23:01;16.30;;;9.07;;
68097;SDS011;54886;47.036;15.466;2023-01-29T15:25:33;15.15;;;9.55;;
68097;SDS011;54886;47.036;15.466;2023-01-29T15:28:00;17.20;;;9.02;;
68097;SDS011;54886;47.036;15.466;2023-01-29T15:30:35;16.15;;;9.38;;
68097;SDS011;54886;47.036;15.466;2023-01-29T15:33:01;17.17;;;9.73;;
68097;SDS011;54886;47.036;15.466;2023-01-29T15:35:34;14.63;;;8.68;;
68097;SDS011;54886;47.036;15.466;2023-01-29T15:40:53;16.55;;;9.52;;
68097;SDS011;54886;47.036;15.466;2023-01-29T15:43:42;14.30;;;8.98;;
68097;SDS011;54886;47.036;15.466;2023-01-29T15:46:17;15.38;;;8.93;;
68097;SDS011;54886;47.036;15.466;2023-01-29T15:48:48;13.63;;;8.95;;
68097;SDS011;54886;47.036;15.466;2023-01-29T15:51:17;15.68;;;9.35;;
68097;SDS011;54886;47.036;15.466;2023-01-29T15:53:58;14.98;;;8.93;;
68097;SDS011;54886;47.036;15.466;2023-01-29T15:56:47;16.13;;;9.40;;
68097;SDS011;54886;47.036;15.466;2023-01-29T15:59:17;15.02;;;8.65;;
68097;SDS011;54886;47.036;15.466;2023-01-29T16:01:45;16.35;;;10.00;;
68097;SDS011;54886;47.036;15.466;2023-01-29T16:04:12;17.27;;;9.80;;
68097;SDS011;54886;47.036;15.466;2023-01-29T16:06:41;17.13;;;9.30;;
68097;SDS011;54886;47.036;15.466;2023-01-29T16:09:11;16.45;;;9.75;;
68097;SDS011;54886;47.036;15.466;2023-01-29T16:11:42;15.77;;;9.20;;
68097;SDS011;54886;47.036;15.466;2023-01-29T16:14:10;17.10;;;9.85;;
68097;SDS011;54886;47.036;15.466;2023-01-29T16:16:38;20.58;;;9.57;;
68097;SDS011;54886;47.036;15.466;2023-01-29T16:19:12;16.95;;;9.43;;
68097;SDS011;54886;47.036;15.466;2023-01-29T16:22:02;15.40;;;9.23;;
68097;SDS011;54886;47.036;15.466;2023-01-29T16:24:29;15.80;;;9.55;;
68097;SDS011;54886;47.036;15.466;2023-01-29T16:26:57;16.25;;;9.75;;
68097;SDS011;54886;47.036;15.466;2023-01-29T16:29:29;16.48;;;9.43;;
68097;SDS011;54886;47.036;15.466;2023-01-29T16:31:56;16.63;;;9.35;;
68097;SDS011;54886;47.036;15.466;2023-01-29T16:34:28;16.73;;;10.07;;
68097;SDS011;54886;47.036;15.466;2023-01-29T16:36:54;16.15;;;9.95;;
68097;SDS011;54886;47.036;15.466;2023-01-29T16:39:25;18.38;;;10.18;;
68097;SDS011;54886;47.036;15.466;2023-01-29T16:44:30;17.08;;;9.73;;
68097;SDS011;54886;47.036;15.466;2023-01-29T16:46:58;15.60;;;9.77;;
68097;SDS011;54886;47.036;15.466;2023-01-29T16:49:48;16.10;;;9.75;;
68097;SDS011;54886;47.036;15.466;2023-01-29T16:54:50;17.50;;;10.30;;
68097;SDS011;54886;47.036;15.466;2023-01-29T16:57:23;16.55;;;9.77;;
68097;SDS011;54886;47.036;15.466;2023-01-29T16:59:54;19.77;;;10.48;;
68097;SDS011;54886;47.036;15.466;2023-01-29T17:04:58;18.48;;;10.82;;